Haddam Neck, Connecticut
Current Conditions -  °F | °C
As of 6:15 PM on Wednesday 22 Oct 2014 (Local Time) from KSNC Reporting Station
Light Rain Light Rain  
Wind Chill: 50°   Ceiling: 1600
Heat Index: 50°   Visibility: 8mi
Dew Point: 46°   Wind: 13mph
Humidity: 87%   Direction: 20°NNE
Pressure: 29.79"   Gusts: 31mph
Location:  41.5612°N, 72.5084°W
Report Text: KSNC 222215Z AUTO 02011G27KT 020V360 8SM -RA OVC016 10/08 A2979 RMK AO2
Loading
Personal Weather Stations






























Interactive Weather Map
Tropical Storm Tracking
New forecast layout! Learn more

10-Day Weather Forecast

Advertisements
Track Severe Weather on mobile